Time;durP1;ratioP1;P1;durP2;ratioP2;P2;SDS_P1;SDS_P2;PMS_P1;PMS_P2;Temp;Humidity;BMP_temperature;BMP_pressure;BME280_temperature;BME280_humidity;BME280_pressure;Samples;Min_cycle;Max_cycle;Signal;HPM_P1;HPM_P2
2021/04/26 00:00:32;;;;;;;14.80;8.27;;;6.40;99.90;;;;;;5040104;28;20056;-80
2021/04/26 00:03:00;;;;;;;14.65;9.00;;;6.30;99.90;;;;;;5040593;28;20083;-80
2021/04/26 00:05:28;;;;;;;16.98;8.73;;;6.30;99.90;;;;;;5040007;28;20081;-79
2021/04/26 00:07:55;;;;;;;17.55;8.70;;;6.30;99.90;;;;;;5038572;28;20481;-80
2021/04/26 00:10:23;;;;;;;14.98;9.63;;;6.30;99.90;;;;;;5039431;28;20139;-79
2021/04/26 00:12:50;;;;;;;15.93;8.40;;;6.30;99.90;;;;;;5039456;28;20073;-79
2021/04/26 00:15:18;;;;;;;13.07;8.32;;;6.20;99.90;;;;;;5039811;28;20137;-81
2021/04/26 00:17:46;;;;;;;15.30;8.18;;;6.20;99.90;;;;;;5039363;28;20176;-79
2021/04/26 00:20:18;;;;;;;14.60;7.88;;;6.20;99.90;;;;;;5037951;28;20104;-79
2021/04/26 00:22:45;;;;;;;14.50;7.85;;;6.10;99.90;;;;;;5039236;28;20065;-79
2021/04/26 00:25:15;;;;;;;13.02;7.82;;;6.10;99.90;;;;;;5039508;28;20737;-80
2021/04/26 00:27:44;;;;;;;14.18;8.90;;;6.10;99.90;;;;;;5038969;28;20061;-82
2021/04/26 00:30:13;;;;;;;15.13;8.40;;;6.00;99.90;;;;;;5038673;28;20053;-80
2021/04/26 00:32:40;;;;;;;14.18;8.65;;;6.00;99.90;;;;;;5038334;28;20053;-79
2021/04/26 00:35:08;;;;;;;18.77;9.52;;;5.90;99.90;;;;;;5039651;28;20085;-80
2021/04/26 00:37:35;;;;;;;13.68;8.70;;;5.90;99.90;;;;;;5039932;28;20055;-79
2021/04/26 00:40:02;;;;;;;19.70;9.45;;;5.90;99.90;;;;;;5039570;28;20636;-79
2021/04/26 00:42:28;;;;;;;22.13;10.52;;;5.90;99.90;;;;;;5039308;28;20056;-79
2021/04/26 00:44:55;;;;;;;21.33;9.75;;;5.90;99.90;;;;;;5037711;28;20089;-79
2021/04/26 00:47:22;;;;;;;16.88;9.70;;;5.80;99.90;;;;;;5038775;28;20081;-79
2021/04/26 00:49:48;;;;;;;18.15;10.50;;;5.80;99.90;;;;;;5038405;28;20042;-78
2021/04/26 00:52:15;;;;;;;21.75;11.25;;;5.70;99.90;;;;;;5037532;28;20112;-77
2021/04/26 00:54:42;;;;;;;18.05;11.05;;;5.70;99.90;;;;;;5039213;28;20132;-79
2021/04/26 00:57:08;;;;;;;16.10;10.20;;;5.70;99.90;;;;;;5038826;28;20109;-79
2021/04/26 00:59:35;;;;;;;17.83;10.57;;;5.80;99.90;;;;;;5038756;28;20132;-80
2021/04/26 01:02:02;;;;;;;18.20;9.82;;;5.70;99.90;;;;;;5039355;28;20077;-80
2021/04/26 01:04:30;;;;;;;12.43;8.73;;;5.70;99.90;;;;;;5038955;28;20136;-79
2021/04/26 01:06:56;;;;;;;13.25;8.32;;;5.60;99.90;;;;;;5039071;28;20057;-78
2021/04/26 01:09:22;;;;;;;13.35;9.05;;;5.60;99.90;;;;;;5039968;28;20179;-79
2021/04/26 01:12:02;;;;;;;15.25;8.32;;;5.50;99.90;;;;;;5039447;28;20053;-81
2021/04/26 01:14:38;;;;;;;17.50;7.93;;;5.50;99.90;;;;;;5038575;28;20084;-80
2021/04/26 01:17:11;;;;;;;15.18;8.50;;;5.40;99.90;;;;;;5037770;28;20083;-80
2021/04/26 01:20:03;;;;;;;14.23;7.40;;;5.40;99.90;;;;;;5038531;28;20109;-79
2021/04/26 01:22:52;;;;;;;13.90;8.00;;;5.30;99.90;;;;;;5039583;28;20049;-79
2021/04/26 01:25:20;;;;;;;12.98;7.82;;;5.30;99.90;;;;;;5039151;28;20454;-79
2021/04/26 01:28:25;;;;;;;14.57;8.25;;;5.30;99.90;;;;;;5038880;28;20072;-79
2021/04/26 01:30:58;;;;;;;13.30;8.77;;;5.30;99.90;;;;;;5039104;28;20046;-79
2021/04/26 01:33:28;;;;;;;20.35;9.13;;;5.20;99.90;;;;;;5039156;28;20056;-79
2021/04/26 01:35:59;;;;;;;15.77;8.98;;;5.20;99.90;;;;;;5038729;28;20124;-79
2021/04/26 01:38:29;;;;;;;12.18;8.48;;;5.20;99.90;;;;;;5038635;28;20046;-79
2021/04/26 01:40:57;;;;;;;14.38;8.95;;;5.00;99.90;;;;;;5038492;28;20105;-80
2021/04/26 01:43:27;;;;;;;13.32;8.32;;;5.00;99.90;;;;;;5038345;28;20053;-78
2021/04/26 01:45:55;;;;;;;15.25;8.60;;;5.00;99.90;;;;;;5037522;28;20445;-79
2021/04/26 01:48:22;;;;;;;14.68;8.80;;;4.90;99.90;;;;;;5037451;28;20059;-79
2021/04/26 01:50:50;;;;;;;11.60;8.20;;;4.90;99.90;;;;;;5038609;28;20152;-79
2021/04/26 01:53:18;;;;;;;12.80;8.52;;;4.90;99.90;;;;;;5038867;28;20137;-79
2021/04/26 01:55:46;;;;;;;11.48;8.23;;;4.90;99.90;;;;;;5038466;28;20081;-79
2021/04/26 01:58:12;;;;;;;12.13;8.60;;;4.90;99.90;;;;;;5038513;28;20141;-80
2021/04/26 02:00:39;;;;;;;16.13;8.40;;;4.90;99.90;;;;;;5037871;28;20080;-79
2021/04/26 02:03:08;;;;;;;14.90;8.93;;;4.80;99.90;;;;;;5037937;28;20109;-79
2021/04/26 02:05:35;;;;;;;14.30;8.55;;;4.80;99.90;;;;;;5037423;28;20060;-80
2021/04/26 02:08:03;;;;;;;15.63;8.75;;;4.80;99.90;;;;;;5037226;28;20132;-79
2021/04/26 02:10:30;;;;;;;13.40;8.68;;;4.80;99.90;;;;;;5037070;28;20140;-79
2021/04/26 02:12:58;;;;;;;17.38;7.90;;;4.70;99.90;;;;;;5035879;28;20049;-79
2021/04/26 02:15:28;;;;;;;13.18;8.35;;;4.70;99.90;;;;;;5036067;28;20589;-80
2021/04/26 02:17:55;;;;;;;14.27;8.85;;;4.70;99.90;;;;;;5040439;28;20088;-80
2021/04/26 02:20:22;;;;;;;18.17;8.50;;;4.70;99.90;;;;;;5038708;28;20049;-80
2021/04/26 02:22:50;;;;;;;19.40;9.00;;;4.60;99.90;;;;;;5037914;28;20077;-80
2021/04/26 02:25:18;;;;;;;16.30;8.23;;;4.50;99.90;;;;;;5037181;28;20053;-80
2021/04/26 02:27:46;;;;;;;18.48;8.48;;;4.50;99.90;;;;;;5037802;28;20073;-80
2021/04/26 02:30:13;;;;;;;19.23;8.85;;;4.50;99.90;;;;;;5037678;28;20088;-80
2021/04/26 02:32:48;;;;;;;16.10;9.02;;;4.50;99.90;;;;;;5037445;28;20536;-81
2021/04/26 02:35:20;;;;;;;14.95;8.95;;;4.50;99.90;;;;;;5038233;28;20096;-79
2021/04/26 02:37:53;;;;;;;23.05;9.70;;;4.40;99.90;;;;;;5038179;28;20067;-81
2021/04/26 02:40:22;;;;;;;14.43;8.95;;;4.40;99.90;;;;;;5037154;28;20077;-81
2021/04/26 02:42:50;;;;;;;14.40;8.75;;;4.40;99.90;;;;;;5038792;28;20105;-80
2021/04/26 02:45:22;;;;;;;19.15;9.20;;;4.40;99.90;;;;;;5037935;28;20045;-81
2021/04/26 02:47:50;;;;;;;13.30;8.55;;;4.40;99.90;;;;;;5038007;28;20132;-78
2021/04/26 02:50:19;;;;;;;15.73;8.82;;;4.40;99.90;;;;;;5038770;28;20049;-80
2021/04/26 02:52:46;;;;;;;14.00;8.90;;;4.40;99.90;;;;;;5037868;28;20113;-79
2021/04/26 02:55:14;;;;;;;18.90;9.45;;;4.40;99.90;;;;;;5037170;28;20072;-78
2021/04/26 02:57:42;;;;;;;22.42;8.65;;;4.30;99.90;;;;;;5036269;28;20080;-78
2021/04/26 03:00:11;;;;;;;19.75;10.02;;;4.30;99.90;;;;;;5036828;28;20133;-79
2021/04/26 03:02:38;;;;;;;17.13;9.32;;;4.40;99.90;;;;;;5035643;28;20612;-80
2021/04/26 03:05:06;;;;;;;14.07;8.80;;;4.30;99.90;;;;;;5082404;23;20202;-78
2021/04/26 03:07:35;;;;;;;15.23;9.10;;;4.30;99.90;;;;;;5045172;28;20131;-79
2021/04/26 03:10:04;;;;;;;21.50;9.73;;;4.30;99.90;;;;;;5054537;28;20049;-79
2021/04/26 03:12:32;;;;;;;16.23;9.95;;;4.30;99.90;;;;;;5058768;28;20084;-80
2021/04/26 03:15:00;;;;;;;19.67;9.43;;;4.20;99.90;;;;;;5074755;28;20056;-79
2021/04/26 03:17:27;;;;;;;21.73;9.77;;;4.20;99.90;;;;;;5077467;28;20084;-78
2021/04/26 03:19:54;;;;;;;16.30;9.70;;;4.10;99.90;;;;;;5082528;28;20059;-82
2021/04/26 03:22:21;;;;;;;16.00;10.25;;;4.10;99.90;;;;;;5085946;28;20048;-80
2021/04/26 03:24:49;;;;;;;20.25;9.60;;;4.10;99.90;;;;;;5088300;28;20064;-80
2021/04/26 03:27:17;;;;;;;15.10;8.98;;;4.00;99.90;;;;;;5087463;28;20049;-80
2021/04/26 03:29:47;;;;;;;18.60;10.30;;;4.00;99.90;;;;;;5087447;28;20670;-80
2021/04/26 03:32:14;;;;;;;14.88;10.32;;;4.00;99.90;;;;;;5085362;28;20090;-80
2021/04/26 03:34:44;;;;;;;14.73;10.20;;;4.00;99.90;;;;;;5084368;28;20051;-81
2021/04/26 03:37:15;;;;;;;16.58;10.27;;;3.90;99.90;;;;;;5084630;28;20076;-81
2021/04/26 03:39:41;;;;;;;16.00;10.18;;;3.90;99.90;;;;;;5082573;28;20045;-81
2021/04/26 03:42:08;;;;;;;17.83;10.13;;;3.90;99.90;;;;;;5085197;28;20087;-80
2021/04/26 03:44:34;;;;;;;17.98;10.75;;;3.90;99.90;;;;;;5082944;28;20285;-79
2021/04/26 03:47:04;;;;;;;17.95;10.75;;;3.80;99.90;;;;;;5084557;28;20131;-81
2021/04/26 03:49:31;;;;;;;17.42;10.82;;;3.80;99.90;;;;;;5087288;28;20092;-80
2021/04/26 03:51:57;;;;;;;20.25;10.75;;;3.80;99.90;;;;;;5087610;28;20052;-80
2021/04/26 03:54:24;;;;;;;18.85;10.70;;;3.80;99.90;;;;;;5080443;28;20141;-79
2021/04/26 03:56:51;;;;;;;20.40;10.85;;;3.70;99.90;;;;;;5079808;28;20087;-79
2021/04/26 03:59:17;;;;;;;19.73;10.77;;;3.70;99.90;;;;;;5083684;28;20080;-80
2021/04/26 04:01:45;;;;;;;20.83;10.55;;;3.70;99.90;;;;;;5084870;28;20079;-81
2021/04/26 04:04:11;;;;;;;18.48;11.25;;;3.60;99.90;;;;;;5087958;28;20102;-80
2021/04/26 04:06:38;;;;;;;18.70;10.82;;;3.60;99.90;;;;;;5087950;28;20082;-80
2021/04/26 04:09:06;;;;;;;17.65;10.90;;;3.60;99.90;;;;;;5089287;28;20083;-81
2021/04/26 04:11:33;;;;;;;20.55;11.00;;;3.60;99.90;;;;;;5090470;28;20059;-80
2021/04/26 04:14:00;;;;;;;21.60;10.75;;;3.60;99.90;;;;;;5089631;28;20059;-80
2021/04/26 04:16:27;;;;;;;21.70;10.00;;;3.50;99.90;;;;;;5084420;28;20090;-79
2021/04/26 04:18:53;;;;;;;18.33;10.77;;;3.50;99.90;;;;;;5081950;28;20075;-79
2021/04/26 04:21:20;;;;;;;18.88;11.45;;;3.50;99.90;;;;;;5084497;28;20075;-80
2021/04/26 04:23:47;;;;;;;16.27;9.98;;;3.50;99.90;;;;;;5085006;28;20084;-81
2021/04/26 04:26:14;;;;;;;20.10;11.25;;;3.50;99.90;;;;;;5083463;28;20128;-79
2021/04/26 04:28:40;;;;;;;17.05;10.93;;;3.50;99.90;;;;;;5080131;28;20370;-79
2021/04/26 04:31:07;;;;;;;21.77;11.25;;;3.50;99.90;;;;;;5079099;28;20182;-82
2021/04/26 04:33:33;;;;;;;20.85;10.93;;;3.50;99.90;;;;;;5080949;28;20470;-80
2021/04/26 04:36:00;;;;;;;17.88;11.18;;;3.60;99.90;;;;;;5081743;28;20048;-79
2021/04/26 04:38:26;;;;;;;19.85;10.57;;;3.60;99.90;;;;;;5083288;28;20196;-79
2021/04/26 04:40:54;;;;;;;18.30;10.68;;;3.60;99.90;;;;;;5086399;28;20049;-79
2021/04/26 04:43:21;;;;;;;18.10;10.93;;;3.60;99.90;;;;;;5088982;28;20052;-82
2021/04/26 04:45:48;;;;;;;21.90;11.40;;;3.70;99.90;;;;;;5073866;28;20051;-83
2021/04/26 04:48:15;;;;;;;19.17;10.88;;;3.70;99.90;;;;;;5072861;28;20056;-82
2021/04/26 04:50:42;;;;;;;16.95;10.45;;;3.70;99.90;;;;;;5074359;28;20053;-81
2021/04/26 04:53:08;;;;;;;18.30;10.65;;;3.80;99.90;;;;;;5072806;28;20049;-82
2021/04/26 04:55:34;;;;;;;17.88;11.15;;;3.80;99.90;;;;;;5057907;28;20113;-83
2021/04/26 04:58:02;;;;;;;16.25;10.73;;;3.90;99.90;;;;;;5052055;28;20107;-80
2021/04/26 05:00:28;;;;;;;23.65;10.98;;;3.90;99.90;;;;;;5040732;28;20116;-79
2021/04/26 05:02:54;;;;;;;18.42;10.98;;;4.00;99.90;;;;;;5040282;28;20422;-78
2021/04/26 05:05:21;;;;;;;23.15;11.63;;;4.00;99.90;;;;;;5038770;28;20100;-79
2021/04/26 05:07:47;;;;;;;20.52;11.05;;;4.10;99.90;;;;;;5038907;28;20077;-79
2021/04/26 05:10:13;;;;;;;16.75;11.02;;;4.10;99.90;;;;;;5038363;28;20057;-79
2021/04/26 05:12:40;;;;;;;19.40;10.82;;;4.20;99.90;;;;;;5034549;28;20092;-78
2021/04/26 05:15:09;;;;;;;23.70;11.00;;;4.30;99.90;;;;;;5032932;28;20092;-78
2021/04/26 05:17:36;;;;;;;18.25;11.05;;;4.30;99.90;;;;;;5035729;28;20055;-79
2021/04/26 05:20:05;;;;;;;17.88;10.85;;;4.50;99.90;;;;;;5038852;28;20506;-79
2021/04/26 05:22:34;;;;;;;17.48;11.00;;;4.60;99.90;;;;;;5039436;28;20057;-79
2021/04/26 05:25:02;;;;;;;18.52;10.98;;;4.80;99.90;;;;;;5034230;28;20057;-78
2021/04/26 05:27:28;;;;;;;14.27;9.57;;;5.30;99.90;;;;;;5033110;28;20081;-78
2021/04/26 05:29:54;;;;;;;18.75;9.60;;;6.30;99.90;;;;;;5033839;28;20179;-78
2021/04/26 05:32:22;;;;;;;14.15;8.65;;;7.60;99.90;;;;;;5034808;28;20050;-78
2021/04/26 05:34:48;;;;;;;12.50;8.75;;;8.80;99.90;;;;;;5036817;28;20080;-80
2021/04/26 05:37:15;;;;;;;14.52;9.52;;;9.90;99.90;;;;;;5039482;28;20054;-79
2021/04/26 05:39:41;;;;;;;13.38;8.00;;;11.00;99.90;;;;;;5042392;28;20109;-79
2021/04/26 05:42:08;;;;;;;11.52;8.32;;;12.00;99.90;;;;;;5044720;28;20096;-80
2021/04/26 05:44:34;;;;;;;15.63;7.53;;;12.70;99.90;;;;;;5047177;28;20105;-81
2021/04/26 05:47:01;;;;;;;17.25;7.93;;;13.40;99.90;;;;;;5042383;28;20109;-79
2021/04/26 05:49:28;;;;;;;12.77;7.93;;;13.20;99.90;;;;;;5040104;28;20065;-80
2021/04/26 05:51:54;;;;;;;13.98;8.93;;;13.40;99.90;;;;;;5034147;28;20124;-79
2021/04/26 05:54:20;;;;;;;15.20;8.75;;;14.00;99.90;;;;;;5035183;28;20140;-80
2021/04/26 05:56:47;;;;;;;13.13;7.45;;;14.40;99.90;;;;;;5036273;28;20053;-79
2021/04/26 05:59:13;;;;;;;12.27;8.15;;;14.60;99.90;;;;;;5035130;28;20474;-78
2021/04/26 06:01:40;;;;;;;18.10;10.18;;;14.80;99.90;;;;;;5035227;28;20095;-78
2021/04/26 06:04:06;;;;;;;17.42;10.60;;;15.10;99.90;;;;;;5034474;28;20091;-78
2021/04/26 06:06:33;;;;;;;15.73;8.40;;;15.30;99.90;;;;;;5034256;28;20470;-78
2021/04/26 06:09:00;;;;;;;13.13;7.90;;;15.70;99.20;;;;;;5037986;28;20045;-79
2021/04/26 06:11:26;;;;;;;14.10;8.30;;;16.00;98.10;;;;;;5038286;28;20049;-79
2021/04/26 06:13:53;;;;;;;9.48;6.75;;;16.30;97.00;;;;;;5035165;28;20144;-77
2021/04/26 06:16:19;;;;;;;11.18;7.68;;;16.10;95.50;;;;;;5032334;28;20136;-77
2021/04/26 06:18:46;;;;;;;14.95;7.38;;;15.90;93.80;;;;;;5031844;28;20517;-79
2021/04/26 06:21:12;;;;;;;8.63;6.70;;;15.60;93.60;;;;;;5049280;28;20453;-77
2021/04/26 06:23:39;;;;;;;9.65;6.32;;;15.60;92.90;;;;;;5052795;28;20131;-78
2021/04/26 06:26:06;;;;;;;13.25;6.20;;;15.30;91.50;;;;;;5051518;28;20114;-78
2021/04/26 06:28:32;;;;;;;8.73;5.75;;;14.90;91.40;;;;;;5051714;28;20049;-77
2021/04/26 06:30:58;;;;;;;8.70;5.72;;;14.40;92.10;;;;;;5051855;28;20113;-78
2021/04/26 06:33:25;;;;;;;14.27;6.30;;;14.30;92.30;;;;;;5052617;28;20052;-76
2021/04/26 06:35:53;;;;;;;9.75;6.57;;;14.00;93.20;;;;;;5051571;28;20266;-77
2021/04/26 06:38:21;;;;;;;9.90;6.57;;;13.90;93.80;;;;;;5054246;28;20076;-77
2021/04/26 06:40:49;;;;;;;8.52;6.00;;;14.30;93.10;;;;;;5051681;28;20053;-78
2021/04/26 06:43:17;;;;;;;14.35;6.45;;;14.00;92.60;;;;;;5052208;28;20140;-77
2021/04/26 06:45:44;;;;;;;10.98;6.43;;;13.70;92.80;;;;;;5052064;28;20092;-79
2021/04/26 06:48:13;;;;;;;9.48;6.60;;;13.60;93.10;;;;;;5053171;28;20053;-78
2021/04/26 06:50:40;;;;;;;10.00;6.10;;;13.70;94.00;;;;;;5055066;28;20056;-79
2021/04/26 06:53:06;;;;;;;9.38;5.90;;;14.30;93.10;;;;;;5050619;28;20080;-79
2021/04/26 06:55:33;;;;;;;12.52;5.90;;;14.50;92.70;;;;;;5052859;28;20041;-79
2021/04/26 06:58:00;;;;;;;7.93;5.57;;;14.90;91.40;;;;;;5052068;28;20063;-79
2021/04/26 07:00:28;;;;;;;10.65;5.95;;;14.60;90.40;;;;;;5055057;28;20104;-79
2021/04/26 07:02:55;;;;;;;7.57;5.03;;;14.50;91.30;;;;;;5056169;28;20079;-80
2021/04/26 07:05:21;;;;;;;30.80;8.75;;;14.90;90.00;;;;;;5060465;28;20049;-79
2021/04/26 07:07:48;;;;;;;8.25;5.60;;;15.10;89.10;;;;;;5059903;28;20072;-78
2021/04/26 07:10:15;;;;;;;13.90;6.30;;;15.00;87.70;;;;;;5059356;28;20061;-80
2021/04/26 07:12:42;;;;;;;9.43;5.47;;;15.10;87.70;;;;;;5060948;28;20122;-78
2021/04/26 07:15:12;;;;;;;9.73;5.13;;;15.30;88.30;;;;;;5062145;28;20108;-81
2021/04/26 07:17:39;;;;;;;13.20;5.15;;;15.50;87.30;;;;;;5054690;28;20057;-80
2021/04/26 07:20:10;;;;;;;11.02;5.05;;;15.50;84.50;;;;;;5063510;28;20477;-79
2021/04/26 07:22:37;;;;;;;8.93;5.30;;;15.60;82.80;;;;;;5064383;28;20083;-79
2021/04/26 07:25:05;;;;;;;10.70;5.55;;;15.70;82.40;;;;;;5062184;28;20498;-78
2021/04/26 07:27:31;;;;;;;9.48;4.70;;;15.40;80.40;;;;;;5060346;28;20084;-81
2021/04/26 07:29:58;;;;;;;9.98;5.10;;;15.50;79.80;;;;;;5059355;28;20075;-79
2021/04/26 07:32:25;;;;;;;6.07;4.28;;;15.80;79.20;;;;;;5055894;28;20094;-80
2021/04/26 07:34:52;;;;;;;7.70;4.43;;;15.90;77.80;;;;;;5055100;28;20109;-79
2021/04/26 07:37:19;;;;;;;12.13;4.90;;;16.10;77.00;;;;;;5056563;28;20484;-80
2021/04/26 07:39:45;;;;;;;7.78;5.10;;;16.20;76.40;;;;;;5059564;28;20183;-79
2021/04/26 07:42:11;;;;;;;7.90;4.75;;;16.50;75.30;;;;;;5059560;28;20095;-81
2021/04/26 07:44:38;;;;;;;7.10;3.58;;;16.30;74.20;;;;;;5058495;28;20080;-79
2021/04/26 07:47:05;;;;;;;7.28;4.28;;;16.00;68.30;;;;;;5058488;28;20053;-79
2021/04/26 07:49:33;;;;;;;5.55;3.60;;;15.50;67.50;;;;;;5060278;28;20559;-80
2021/04/26 07:51:59;;;;;;;5.57;3.60;;;15.30;68.90;;;;;;5057847;28;20056;-78
2021/04/26 07:54:25;;;;;;;5.70;3.72;;;15.00;67.50;;;;;;5059579;28;20163;-80
2021/04/26 07:56:52;;;;;;;6.57;3.70;;;14.60;66.80;;;;;;5061174;28;20105;-80
2021/04/26 07:59:19;;;;;;;6.15;4.00;;;14.80;69.50;;;;;;5058117;28;20517;-79
2021/04/26 08:01:46;;;;;;;10.55;3.67;;;14.60;68.20;;;;;;5060592;28;20136;-79
2021/04/26 08:04:12;;;;;;;4.40;3.13;;;14.40;66.10;;;;;;5058845;28;20049;-78
2021/04/26 08:06:40;;;;;;;5.32;3.00;;;14.20;67.10;;;;;;5057599;28;20067;-78
2021/04/26 08:09:07;;;;;;;6.43;3.50;;;14.00;66.30;;;;;;5059275;28;20114;-79
2021/04/26 08:11:33;;;;;;;5.50;3.50;;;14.20;66.00;;;;;;5060357;28;20112;-79
2021/04/26 08:14:00;;;;;;;4.20;3.40;;;14.00;64.90;;;;;;5061238;28;20084;-79
2021/04/26 08:16:26;;;;;;;6.82;3.78;;;14.10;65.20;;;;;;5059299;28;20456;-79
2021/04/26 08:18:52;;;;;;;6.53;3.10;;;14.20;65.40;;;;;;5059058;28;20440;-79
2021/04/26 08:21:19;;;;;;;6.47;3.30;;;14.60;65.70;;;;;;5059140;28;20188;-79
2021/04/26 08:23:46;;;;;;;3.30;2.83;;;14.80;67.30;;;;;;5060227;28;20113;-79
2021/04/26 08:26:13;;;;;;;7.90;3.35;;;14.90;64.30;;;;;;5059308;28;20084;-78
2021/04/26 08:28:39;;;;;;;5.68;3.47;;;14.50;64.20;;;;;;5057100;28;20049;-78
2021/04/26 08:31:07;;;;;;;4.93;3.40;;;14.30;63.50;;;;;;5055582;28;20107;-80
2021/04/26 08:33:34;;;;;;;4.70;3.20;;;14.50;63.10;;;;;;5056446;28;20128;-81
2021/04/26 08:36:00;;;;;;;6.90;3.38;;;14.40;60.70;;;;;;5057198;28;20053;-79
2021/04/26 08:38:27;;;;;;;9.30;3.42;;;14.30;62.10;;;;;;5055616;28;20135;-79
2021/04/26 08:40:54;;;;;;;6.13;3.22;;;14.60;62.50;;;;;;5057182;28;20543;-79
2021/04/26 08:43:20;;;;;;;8.18;3.10;;;14.60;62.00;;;;;;5062378;28;20049;-80
2021/04/26 08:45:47;;;;;;;7.38;3.28;;;14.60;60.80;;;;;;5062152;28;20088;-80
2021/04/26 08:48:14;;;;;;;5.40;3.22;;;14.50;61.00;;;;;;5061989;28;20060;-79
2021/04/26 08:50:41;;;;;;;6.05;3.20;;;14.80;60.70;;;;;;5061232;28;20503;-79
2021/04/26 08:53:07;;;;;;;5.03;3.40;;;14.70;61.70;;;;;;5062076;28;20077;-80
2021/04/26 08:55:34;;;;;;;7.55;3.30;;;14.60;62.30;;;;;;5067161;28;20072;-78
2021/04/26 08:58:01;;;;;;;3.75;2.85;;;14.10;61.20;;;;;;5066271;28;20127;-79
2021/04/26 09:00:28;;;;;;;8.32;3.70;;;14.10;61.80;;;;;;5064918;28;20045;-80
2021/04/26 09:02:57;;;;;;;5.00;3.45;;;14.10;62.00;;;;;;5060681;28;20044;-79
2021/04/26 09:05:26;;;;;;;4.68;3.20;;;14.20;61.30;;;;;;5058685;28;20492;-79
2021/04/26 09:07:54;;;;;;;4.82;3.30;;;14.10;61.10;;;;;;5054455;28;20073;-79
2021/04/26 09:10:36;;;;;;;7.43;3.47;;;14.60;62.00;;;;;;5054575;28;20049;-79
2021/04/26 09:13:26;;;;;;;7.00;3.60;;;14.80;62.30;;;;;;5057103;28;20175;-79
2021/04/26 09:15:54;;;;;;;4.50;3.10;;;14.40;61.90;;;;;;5055744;28;20550;-78
2021/04/26 09:18:21;;;;;;;6.68;3.38;;;14.40;62.00;;;;;;5052540;28;20071;-78
2021/04/26 09:20:47;;;;;;;4.43;3.08;;;14.50;60.90;;;;;;5053233;28;20448;-78
2021/04/26 09:23:15;;;;;;;8.38;3.80;;;14.60;60.80;;;;;;5054233;28;20068;-78
2021/04/26 09:25:43;;;;;;;6.45;3.40;;;14.50;60.50;;;;;;5053190;28;20088;-78
2021/04/26 09:28:12;;;;;;;5.25;3.45;;;14.60;60.70;;;;;;5052881;28;20128;-77
2021/04/26 09:30:42;;;;;;;6.97;3.70;;;14.50;60.80;;;;;;5052877;28;20045;-78
2021/04/26 09:33:18;;;;;;;5.35;3.40;;;14.60;59.70;;;;;;5053792;28;20122;-78
2021/04/26 09:35:45;;;;;;;7.57;3.63;;;14.50;60.80;;;;;;5053764;28;20132;-78
2021/04/26 09:38:24;;;;;;;5.05;3.20;;;14.30;60.70;;;;;;5052498;28;20072;-78
2021/04/26 09:41:07;;;;;;;4.82;3.13;;;14.20;59.80;;;;;;5053139;28;20068;-78
2021/04/26 09:43:33;;;;;;;;;;;14.30;61.50;;;;;;5058677;28;20389;-78
2021/04/26 09:46:00;;;;;;;7.78;3.40;;;13.80;60.40;;;;;;5059103;28;19920;-78
2021/04/26 09:48:27;;;;;;;5.63;3.45;;;13.50;61.50;;;;;;5052640;28;20106;-78
2021/04/26 09:50:56;;;;;;;4.90;3.20;;;13.20;61.50;;;;;;5052566;28;20143;-79
2021/04/26 09:53:23;;;;;;;6.10;3.55;;;13.20;63.30;;;;;;5052757;28;20053;-78
2021/04/26 09:55:51;;;;;;;5.82;3.25;;;13.30;62.40;;;;;;5053570;28;20112;-79
2021/04/26 09:58:17;;;;;;;5.82;3.60;;;13.00;62.40;;;;;;5052640;28;20056;-78
2021/04/26 10:00:46;;;;;;;5.78;3.10;;;13.00;63.90;;;;;;5051743;28;20049;-79
2021/04/26 10:03:14;;;;;;;6.60;3.67;;;13.20;62.80;;;;;;5052132;28;20071;-78
2021/04/26 10:05:42;;;;;;;6.93;3.38;;;13.10;60.00;;;;;;5052730;28;20234;-78
2021/04/26 10:08:10;;;;;;;7.10;3.55;;;13.10;61.20;;;;;;5052977;28;20057;-79
2021/04/26 10:10:38;;;;;;;5.68;3.38;;;13.20;62.00;;;;;;5053032;28;20150;-78
2021/04/26 10:13:04;;;;;;;6.10;3.35;;;13.40;62.30;;;;;;5052257;28;20144;-77
2021/04/26 10:15:30;;;;;;;5.82;3.60;;;13.60;62.50;;;;;;5052797;28;20092;-78
2021/04/26 10:17:59;;;;;;;5.32;3.28;;;13.70;61.50;;;;;;5051733;28;20049;-78
2021/04/26 10:20:34;;;;;;;7.15;3.60;;;13.60;60.50;;;;;;5051989;28;20433;-78
2021/04/26 10:23:00;;;;;;;5.68;3.35;;;13.70;62.60;;;;;;5051691;28;20056;-77
2021/04/26 10:25:41;;;;;;;7.43;3.70;;;13.50;62.90;;;;;;5053959;28;20081;-78
2021/04/26 10:28:31;;;;;;;6.35;3.55;;;13.30;63.10;;;;;;5054654;28;20045;-78
2021/04/26 10:31:07;;;;;;;4.75;3.22;;;13.50;62.30;;;;;;5054092;28;20049;-79
2021/04/26 10:34:05;;;;;;;6.63;3.60;;;13.40;61.50;;;;;;5054956;28;20053;-79
2021/04/26 10:36:47;;;;;;;5.13;3.58;;;13.60;61.70;;;;;;5054344;28;20080;-78
2021/04/26 10:39:15;;;;;;;5.45;3.15;;;13.50;63.10;;;;;;5056134;28;20044;-79
2021/04/26 10:42:00;;;;;;;5.32;3.63;;;13.60;62.20;;;;;;5057199;28;20529;-80
2021/04/26 10:44:53;;;;;;;7.00;3.58;;;13.70;62.10;;;;;;5056639;28;20416;-79
2021/04/26 10:47:23;;;;;;;5.72;3.67;;;13.60;62.10;;;;;;5055768;28;20049;-79
2021/04/26 10:49:52;;;;;;;6.85;4.03;;;13.60;62.40;;;;;;5055391;28;20226;-78
2021/04/26 10:52:36;;;;;;;5.07;3.33;;;13.50;61.20;;;;;;5055799;28;20105;-80
2021/04/26 10:55:06;;;;;;;4.93;3.40;;;13.60;62.80;;;;;;5055423;28;20126;-79
2021/04/26 10:57:34;;;;;;;4.63;3.35;;;13.70;61.60;;;;;;5056556;28;20084;-79
2021/04/26 11:00:37;;;;;;;6.55;3.33;;;13.80;61.60;;;;;;5057964;28;20049;-79
2021/04/26 11:03:18;;;;;;;;;;;13.80;60.30;;;;;;5056609;28;20157;-78
2021/04/26 11:05:46;;;;;;;8.23;3.55;;;13.70;61.10;;;;;;5056285;28;19940;-77
2021/04/26 11:08:39;;;;;;;8.80;3.50;;;13.40;63.10;;;;;;5057269;28;20116;-78
2021/04/26 11:11:10;;;;;;;5.63;3.55;;;13.60;63.20;;;;;;5056356;28;20479;-79
2021/04/26 11:13:43;;;;;;;6.65;4.10;;;13.40;62.40;;;;;;5060121;28;20110;-78
2021/04/26 11:16:11;;;;;;;6.93;3.63;;;13.20;62.40;;;;;;5059417;28;20399;-78
2021/04/26 11:18:39;;;;;;;4.75;3.22;;;13.50;62.20;;;;;;5058561;28;20131;-78
2021/04/26 11:21:06;;;;;;;5.75;3.55;;;13.60;61.10;;;;;;5058380;28;20098;-78
2021/04/26 11:23:52;;;;;;;7.80;4.00;;;13.80;60.70;;;;;;5058054;28;20127;-79
2021/04/26 11:26:20;;;;;;;7.80;3.78;;;14.00;61.40;;;;;;5058215;28;20056;-78
2021/04/26 11:29:08;;;;;;;6.18;4.05;;;14.10;61.20;;;;;;5058735;28;20110;-79
2021/04/26 11:32:02;;;;;;;6.03;3.55;;;14.10;60.10;;;;;;5057921;28;20049;-79
2021/04/26 11:35:05;;;;;;;5.97;3.92;;;14.30;61.70;;;;;;5022288;28;20044;-78
2021/04/26 11:37:34;;;;;;;8.23;4.15;;;14.20;61.10;;;;;;5057624;28;20049;-78
2021/04/26 11:40:13;;;;;;;6.03;3.60;;;14.30;62.20;;;;;;5058912;28;20163;-78
2021/04/26 11:42:40;;;;;;;9.80;3.90;;;14.50;61.70;;;;;;5055220;28;20136;-78
2021/04/26 11:45:08;;;;;;;5.03;3.72;;;14.70;61.20;;;;;;5056023;28;20502;-78
2021/04/26 11:47:34;;;;;;;5.72;3.38;;;14.60;59.90;;;;;;5056335;28;20131;-78
2021/04/26 11:50:02;;;;;;;6.93;3.45;;;14.70;59.70;;;;;;5059357;28;20160;-77
2021/04/26 11:52:30;;;;;;;5.40;3.90;;;14.70;60.60;;;;;;5059944;28;20477;-78
2021/04/26 11:55:13;;;;;;;4.75;3.95;;;14.50;59.20;;;;;;5059987;28;20048;-77
2021/04/26 11:57:45;;;;;;;6.28;4.22;;;14.40;58.70;;;;;;5055693;28;20049;-78
2021/04/26 12:00:15;;;;;;;6.05;4.10;;;14.20;60.70;;;;;;5055688;28;20124;-78
2021/04/26 12:02:44;;;;;;;5.30;3.95;;;14.20;61.90;;;;;;5054309;28;20049;-78
2021/04/26 12:05:13;;;;;;;5.75;4.32;;;14.30;62.50;;;;;;5054090;28;20134;-78
2021/04/26 12:07:40;;;;;;;6.22;4.30;;;14.50;61.40;;;;;;5054303;28;20566;-78
2021/04/26 12:10:10;;;;;;;9.68;4.18;;;14.40;60.90;;;;;;5054805;28;20045;-77
2021/04/26 12:12:37;;;;;;;8.88;4.28;;;14.40;59.80;;;;;;5054892;28;20055;-78
2021/04/26 12:15:07;;;;;;;6.53;4.20;;;14.30;60.20;;;;;;5054156;28;20139;-78
2021/04/26 12:17:35;;;;;;;5.85;4.00;;;14.30;61.80;;;;;;5054012;28;20140;-78
2021/04/26 12:20:14;;;;;;;7.00;4.28;;;14.40;61.60;;;;;;5054448;28;20041;-78
2021/04/26 12:22:41;;;;;;;6.85;4.07;;;14.50;62.00;;;;;;5058398;28;20044;-77
2021/04/26 12:25:10;;;;;;;8.40;4.10;;;14.70;60.00;;;;;;5054898;28;20127;-78
2021/04/26 12:27:37;;;;;;;8.32;4.35;;;14.90;61.80;;;;;;5055092;28;20101;-78
2021/04/26 12:30:16;;;;;;;6.05;4.82;;;14.90;60.80;;;;;;5056046;28;20087;-77
2021/04/26 12:32:44;;;;;;;6.00;4.10;;;15.10;61.50;;;;;;5055665;28;20089;-78
2021/04/26 12:35:12;;;;;;;5.88;4.38;;;15.20;60.50;;;;;;5054399;28;20060;-78
2021/04/26 12:37:44;;;;;;;10.40;4.55;;;15.20;60.00;;;;;;5054562;28;20371;-77
2021/04/26 12:40:16;;;;;;;7.80;4.38;;;15.20;59.40;;;;;;5054085;28;20140;-78
2021/04/26 12:42:43;;;;;;;7.60;4.70;;;15.20;59.00;;;;;;5054992;28;20135;-78
2021/04/26 12:45:12;;;;;;;6.78;4.45;;;15.30;59.00;;;;;;5054412;28;20501;-78
2021/04/26 12:47:53;;;;;;;7.85;4.70;;;15.40;58.40;;;;;;5053742;28;20428;-78
2021/04/26 12:50:24;;;;;;;6.65;4.47;;;15.40;58.30;;;;;;5053537;28;20128;-78
2021/04/26 12:53:13;;;;;;;8.30;5.38;;;15.60;59.00;;;;;;5052929;28;20059;-78
2021/04/26 12:55:43;;;;;;;5.97;4.57;;;15.50;57.20;;;;;;5053583;28;20057;-78